Moab, UT

1:21 AM MST on December 03, 2016 (GMT -0700)
Canon Vista | | Change Station

Elev 4183 ft 38.56 °N, 109.53 °W | Updated 3 seconds ago

Clear
Clear
24.2 °F
Feels Like 19 °F
N
4.0
Wind Variable Wind from SSW
Gusts 5.0 mph

Today
High -- | Low -- °F
--% Chance of Precip.
Yesterday
High -- | Low -- °F
Precip. -- in
Pressure 30.25 in
Visibility 10.0 miles
Clouds Clear
Windchill 19 °F
Dew Point 18 °F
Humidity 76%
Rainfall 0.00 in
Snow Depth Not available.
7:19 AM 4:57 PM
Waxing Crescent, 13% visible
METAR KCNY 030553Z AUTO 34003KT 10SM CLR M03/M10 A3020 RMK AO2 SLP242 T10281100 10044 21039 51014
Pressure 30.25 in
Visibility 10.0 miles
Clouds Clear
Windchill 19 °F
Dew Point 18 °F
Humidity 76%
Rainfall 0.00 in
Snow Depth Not available.
7:19 AM 4:57 PM
Waxing Crescent, 13% visible
METAR KCNY 030553Z AUTO 34003KT 10SM CLR M03/M10 A3020 RMK AO2 SLP242 T10281100 10044 21039 51014

10-Day Weather Forecast

Almanac

Astronomy

Dec. 03, 2016 Rise Set
Actual Time
Civil Twilight
Nautical Twilight
Astronomical Twilight
Moon
Length of Visible Light
Length of Day
Tomorrow will be .
, % of the Moon is Illuminated

Today's Extremes

State Highs State Lows

Community

WunderPhotos

Upload Photos

1,955,432 photos uploaded!

WunderBlog® & News

Nearby

Air Quality

  Air Quality AQ Index Pollutant
Not available.

Snow Depth

Station Depth Elevation

Earthquake Activity

City Distance Mag. Time & Date
Minimum magnitude displayed is 2.5.

Coastal Water Temperatures

Place Temperature

Stations

Nearby Weather Stations

Station Location Temp. Windchill Dew Point Humidity Wind Precip. Elev Updated Type
                   

Watches & Warnings

There are currently no watches in effect.